UAL1271 KIAD-KCHS
Flight info
| Callsign | UAL1271 |
|---|---|
| Flight time | 1h 22m |
| Altitude | 36000 |
| Route | JCOBY4 SCOOB DFENC Q109 JOHAR AMYLU AMYLU3 |
| Aircraft | B738/M-SDE2E3FGHIRWXY/LB1 |
Departure
| Time | 2026-04-25 16:04 |
|---|---|
| Airport | Washington Dulles International Airport (KIAD) |
Arrival
| Time | 2026-04-25 17:26 |
|---|---|
| Airport | Charleston International Airport (KCHS) |
| Time | Latitude | Longitude | Altitude | Speed | Heading |
|---|---|---|---|---|---|
| 2026-04-25 15:36 | 38.94819 | -77.45332 | 300 ft | 0 kts | 349° |
| 2026-04-25 15:49 | 38.94818 | -77.45332 | 297 ft | 0 kts | 349° |
| 2026-04-25 15:49 | 38.94817 | -77.45331 | 297 ft | 0 kts | 349° |
| 2026-04-25 15:50 | 38.94802 | -77.45328 | 300 ft | 3 kts | 349° |
| 2026-04-25 15:50 | 38.94783 | -77.45324 | 299 ft | 3 kts | 349° |
| 2026-04-25 15:50 | 38.94765 | -77.45319 | 300 ft | 3 kts | 324° |
| 2026-04-25 15:50 | 38.94758 | -77.45310 | 300 ft | 0 kts | 286° |
| 2026-04-25 15:53 | 38.94758 | -77.45313 | 299 ft | 1 kts | 282° |
| 2026-04-25 15:53 | 38.94760 | -77.45327 | 298 ft | 0 kts | 278° |
| 2026-04-25 15:54 | 38.94758 | -77.45330 | 298 ft | 1 kts | 249° |
| 2026-04-25 15:55 | 38.94741 | -77.45383 | 301 ft | 13 kts | 248° |
| 2026-04-25 15:55 | 38.94736 | -77.45524 | 297 ft | 12 kts | 270° |
| 2026-04-25 15:55 | 38.94736 | -77.45538 | 297 ft | 2 kts | 270° |
| 2026-04-25 15:56 | 38.94735 | -77.45557 | 296 ft | 5 kts | 263° |
| 2026-04-25 15:56 | 38.94687 | -77.45607 | 298 ft | 15 kts | 186° |
| 2026-04-25 15:57 | 38.94579 | -77.45606 | 299 ft | 15 kts | 180° |
| 2026-04-25 15:57 | 38.94477 | -77.45607 | 301 ft | 15 kts | 181° |
| 2026-04-25 15:57 | 38.94377 | -77.45610 | 302 ft | 14 kts | 181° |
| 2026-04-25 15:57 | 38.94270 | -77.45612 | 305 ft | 17 kts | 181° |
| 2026-04-25 15:58 | 38.94139 | -77.45614 | 304 ft | 19 kts | 180° |
| 2026-04-25 15:58 | 38.94010 | -77.45616 | 303 ft | 18 kts | 180° |
| 2026-04-25 15:58 | 38.93885 | -77.45616 | 302 ft | 18 kts | 180° |
| 2026-04-25 15:58 | 38.93752 | -77.45618 | 298 ft | 20 kts | 181° |
| 2026-04-25 15:59 | 38.93644 | -77.45526 | 296 ft | 20 kts | 129° |
| 2026-04-25 15:59 | 38.93547 | -77.45514 | 285 ft | 1 kts | 201° |
| 2026-04-25 15:59 | 38.93532 | -77.45521 | 284 ft | 0 kts | 201° |
| 2026-04-25 16:00 | 38.93526 | -77.45524 | 284 ft | 3 kts | 201° |
| 2026-04-25 16:00 | 38.93523 | -77.45526 | 284 ft | 0 kts | 201° |
| 2026-04-25 16:00 | 38.93519 | -77.45527 | 284 ft | 0 kts | 201° |
| 2026-04-25 16:01 | 38.93484 | -77.45545 | 281 ft | 13 kts | 201° |
| 2026-04-25 16:01 | 38.93457 | -77.45558 | 280 ft | 0 kts | 201° |
| 2026-04-25 16:02 | 38.93398 | -77.45586 | 280 ft | 19 kts | 201° |
| 2026-04-25 16:02 | 38.93374 | -77.45638 | 281 ft | 0 kts | 290° |
| 2026-04-25 16:03 | 38.93414 | -77.45776 | 282 ft | 55 kts | 290° |
| 2026-04-25 16:03 | 38.93662 | -77.46615 | 296 ft | 143 kts | 290° |
| 2026-04-25 16:03 | 38.94101 | -77.48079 | 530 ft | 197 kts | 291° |
| 2026-04-25 16:04 | 38.94834 | -77.49664 | 1413 ft | 217 kts | 315° |
| 2026-04-25 16:04 | 38.95997 | -77.50994 | 2188 ft | 235 kts | 322° |
| 2026-04-25 16:04 | 38.97387 | -77.52324 | 2483 ft | 263 kts | 325° |
| 2026-04-25 16:04 | 38.98909 | -77.53736 | 2952 ft | 270 kts | 323° |
| 2026-04-25 16:05 | 39.00408 | -77.55156 | 2952 ft | 264 kts | 323° |
| 2026-04-25 16:05 | 39.01857 | -77.56577 | 2942 ft | 259 kts | 321° |
| 2026-04-25 16:05 | 39.04588 | -77.59492 | 2810 ft | 255 kts | 319° |
| 2026-04-25 16:06 | 39.05911 | -77.60932 | 2844 ft | 243 kts | 325° |
| 2026-04-25 16:06 | 39.07310 | -77.62146 | 2844 ft | 244 kts | 324° |
| 2026-04-25 16:06 | 39.08719 | -77.63405 | 2850 ft | 250 kts | 324° |
| 2026-04-25 16:06 | 39.10137 | -77.64681 | 2859 ft | 247 kts | 325° |
| 2026-04-25 16:07 | 39.11649 | -77.65681 | 2829 ft | 245 kts | 347° |
| 2026-04-25 16:07 | 39.12754 | -77.65740 | 2982 ft | 231 kts | 13° |
| 2026-04-25 16:07 | 39.14477 | -77.64324 | 3888 ft | 224 kts | 57° |
| 2026-04-25 16:07 | 39.15004 | -77.62373 | 4219 ft | 245 kts | 84° |
| 2026-04-25 16:08 | 39.15105 | -77.60094 | 4658 ft | 261 kts | 88° |
| 2026-04-25 16:08 | 39.15163 | -77.57697 | 5117 ft | 281 kts | 89° |
| 2026-04-25 16:08 | 39.15218 | -77.55147 | 5928 ft | 288 kts | 89° |
| 2026-04-25 16:08 | 39.15280 | -77.52539 | 6751 ft | 293 kts | 89° |
| 2026-04-25 16:09 | 39.15348 | -77.49903 | 7605 ft | 296 kts | 89° |
| 2026-04-25 16:09 | 39.15420 | -77.47238 | 8473 ft | 300 kts | 90° |
| 2026-04-25 16:09 | 39.15497 | -77.44532 | 9305 ft | 304 kts | 90° |
| 2026-04-25 16:09 | 39.15575 | -77.41779 | 10124 ft | 309 kts | 90° |
| 2026-04-25 16:10 | 39.15657 | -77.38954 | 10570 ft | 327 kts | 90° |
| 2026-04-25 16:10 | 39.15742 | -77.35919 | 10753 ft | 352 kts | 90° |
| 2026-04-25 16:10 | 39.15834 | -77.32645 | 10978 ft | 374 kts | 90° |
| 2026-04-25 16:10 | 39.15730 | -77.29265 | 11508 ft | 381 kts | 101° |
| 2026-04-25 16:11 | 39.15177 | -77.25960 | 12230 ft | 384 kts | 106° |
| 2026-04-25 16:11 | 39.14559 | -77.22596 | 12956 ft | 388 kts | 104° |
| 2026-04-25 16:11 | 39.13830 | -77.19206 | 13528 ft | 396 kts | 112° |
| 2026-04-25 16:11 | 39.12640 | -77.16002 | 14163 ft | 398 kts | 123° |
| 2026-04-25 16:12 | 39.11034 | -77.13097 | 14826 ft | 398 kts | 132° |
| 2026-04-25 16:12 | 39.09229 | -77.10378 | 15463 ft | 402 kts | 134° |
| 2026-04-25 16:12 | 39.07377 | -77.07648 | 16056 ft | 407 kts | 134° |
| 2026-04-25 16:12 | 39.06143 | -77.05826 | 16448 ft | 410 kts | 134° |
| 2026-04-25 16:13 | 39.03628 | -77.02074 | 17256 ft | 416 kts | 133° |
| 2026-04-25 16:13 | 39.01741 | -76.99228 | 17844 ft | 421 kts | 133° |
| 2026-04-25 16:13 | 38.99832 | -76.96339 | 18398 ft | 425 kts | 133° |
| 2026-04-25 16:13 | 38.97907 | -76.93428 | 18894 ft | 429 kts | 133° |
| 2026-04-25 16:14 | 38.95837 | -76.90668 | 19392 ft | 429 kts | 143° |
| 2026-04-25 16:14 | 38.93391 | -76.88560 | 19893 ft | 427 kts | 156° |
| 2026-04-25 16:14 | 38.90657 | -76.87101 | 20394 ft | 425 kts | 168° |
| 2026-04-25 16:14 | 38.87790 | -76.86173 | 20918 ft | 426 kts | 170° |
| 2026-04-25 16:15 | 38.84887 | -76.85291 | 21409 ft | 430 kts | 170° |
| 2026-04-25 16:15 | 38.81967 | -76.84406 | 21873 ft | 433 kts | 170° |
| 2026-04-25 16:15 | 38.79040 | -76.83503 | 22466 ft | 433 kts | 169° |
| 2026-04-25 16:15 | 38.76110 | -76.82586 | 22938 ft | 436 kts | 169° |
| 2026-04-25 16:16 | 38.73139 | -76.81646 | 23365 ft | 440 kts | 169° |
| 2026-04-25 16:16 | 38.70154 | -76.80695 | 23752 ft | 444 kts | 169° |
| 2026-04-25 16:16 | 38.67142 | -76.79733 | 24138 ft | 446 kts | 169° |
| 2026-04-25 16:16 | 38.64124 | -76.78769 | 24509 ft | 449 kts | 169° |
| 2026-04-25 16:17 | 38.61090 | -76.77801 | 24869 ft | 452 kts | 169° |
| 2026-04-25 16:17 | 38.58023 | -76.76825 | 24940 ft | 456 kts | 169° |
| 2026-04-25 16:17 | 38.54953 | -76.75847 | 24947 ft | 453 kts | 169° |
| 2026-04-25 16:17 | 38.51949 | -76.74890 | 24945 ft | 450 kts | 169° |
| 2026-04-25 16:18 | 38.48911 | -76.73925 | 24960 ft | 450 kts | 169° |
| 2026-04-25 16:18 | 38.47876 | -76.73597 | 24964 ft | 451 kts | 169° |
| 2026-04-25 16:18 | 38.42798 | -76.71988 | 24962 ft | 452 kts | 169° |
| 2026-04-25 16:18 | 38.39734 | -76.71098 | 24955 ft | 451 kts | 173° |
| 2026-04-25 16:19 | 38.36628 | -76.70525 | 24960 ft | 450 kts | 176° |
| 2026-04-25 16:19 | 38.33522 | -76.70067 | 24986 ft | 452 kts | 177° |
| 2026-04-25 16:19 | 38.30382 | -76.69626 | 25304 ft | 454 kts | 177° |
| 2026-04-25 16:20 | 38.24105 | -76.68685 | 26185 ft | 455 kts | 176° |
| 2026-04-25 16:20 | 38.20953 | -76.68184 | 26485 ft | 458 kts | 176° |
| 2026-04-25 16:20 | 38.14581 | -76.67154 | 27098 ft | 464 kts | 176° |
| 2026-04-25 16:21 | 38.11365 | -76.66636 | 27403 ft | 466 kts | 176° |
| 2026-04-25 16:21 | 38.08137 | -76.66196 | 27717 ft | 467 kts | 179° |
| 2026-04-25 16:21 | 38.04930 | -76.65930 | 28016 ft | 469 kts | 180° |
| 2026-04-25 16:21 | 38.01653 | -76.65738 | 28317 ft | 471 kts | 181° |
| 2026-04-25 16:22 | 37.98374 | -76.65567 | 28609 ft | 473 kts | 181° |
| 2026-04-25 16:22 | 37.95072 | -76.65386 | 28895 ft | 475 kts | 181° |
| 2026-04-25 16:22 | 37.91759 | -76.65189 | 29197 ft | 477 kts | 181° |
| 2026-04-25 16:22 | 37.88442 | -76.64977 | 29596 ft | 476 kts | 181° |
| 2026-04-25 16:23 | 37.85143 | -76.64757 | 30128 ft | 472 kts | 181° |
| 2026-04-25 16:23 | 37.81864 | -76.64536 | 30515 ft | 471 kts | 181° |
| 2026-04-25 16:23 | 37.78588 | -76.64315 | 30786 ft | 473 kts | 181° |
| 2026-04-25 16:23 | 37.75294 | -76.64096 | 31052 ft | 474 kts | 181° |
| 2026-04-25 16:24 | 37.72000 | -76.63876 | 31382 ft | 473 kts | 181° |
| 2026-04-25 16:24 | 37.68719 | -76.63658 | 31739 ft | 472 kts | 181° |
| 2026-04-25 16:24 | 37.65435 | -76.63440 | 32063 ft | 472 kts | 181° |
| 2026-04-25 16:24 | 37.62199 | -76.63225 | 32360 ft | 472 kts | 182° |
| 2026-04-25 16:25 | 37.58928 | -76.63188 | 32669 ft | 468 kts | 189° |
| 2026-04-25 16:25 | 37.52596 | -76.64616 | 33337 ft | 459 kts | 198° |
| 2026-04-25 16:25 | 37.49487 | -76.65478 | 33645 ft | 459 kts | 198° |
| 2026-04-25 16:26 | 37.46367 | -76.66341 | 33926 ft | 459 kts | 198° |
| 2026-04-25 16:26 | 37.43245 | -76.67191 | 34194 ft | 458 kts | 198° |
| 2026-04-25 16:26 | 37.40115 | -76.68029 | 34467 ft | 458 kts | 197° |
| 2026-04-25 16:26 | 37.36997 | -76.68854 | 34738 ft | 457 kts | 197° |
| 2026-04-25 16:27 | 37.33876 | -76.69672 | 35052 ft | 455 kts | 197° |
| 2026-04-25 16:27 | 37.30826 | -76.70467 | 35381 ft | 453 kts | 197° |
| 2026-04-25 16:27 | 37.27744 | -76.71269 | 35671 ft | 452 kts | 197° |
| 2026-04-25 16:27 | 37.24666 | -76.72070 | 35891 ft | 451 kts | 197° |
| 2026-04-25 16:28 | 37.21581 | -76.72875 | 35872 ft | 455 kts | 197° |
| 2026-04-25 16:28 | 37.15367 | -76.74492 | 35881 ft | 454 kts | 197° |
| 2026-04-25 16:29 | 37.09204 | -76.76090 | 35894 ft | 451 kts | 197° |
| 2026-04-25 16:29 | 37.03077 | -76.77677 | 35895 ft | 449 kts | 197° |
| 2026-04-25 16:30 | 36.96964 | -76.79260 | 35873 ft | 447 kts | 197° |
| 2026-04-25 16:30 | 36.90893 | -76.80830 | 35884 ft | 448 kts | 197° |
| 2026-04-25 16:31 | 36.84774 | -76.82411 | 35894 ft | 450 kts | 197° |
| 2026-04-25 16:31 | 36.78616 | -76.83998 | 35892 ft | 453 kts | 197° |
| 2026-04-25 16:32 | 36.72425 | -76.85590 | 35880 ft | 455 kts | 196° |
| 2026-04-25 16:32 | 36.66201 | -76.87188 | 35891 ft | 458 kts | 196° |
| 2026-04-25 16:33 | 36.59944 | -76.88791 | 35893 ft | 459 kts | 196° |
| 2026-04-25 16:33 | 36.53679 | -76.90393 | 35859 ft | 459 kts | 196° |
| 2026-04-25 16:34 | 36.47434 | -76.91986 | 35865 ft | 457 kts | 196° |
| 2026-04-25 16:34 | 36.41203 | -76.93575 | 35873 ft | 456 kts | 196° |
| 2026-04-25 16:35 | 36.35028 | -76.95148 | 35884 ft | 455 kts | 196° |
| 2026-04-25 16:35 | 36.28835 | -76.96723 | 35880 ft | 454 kts | 196° |
| 2026-04-25 16:36 | 36.22653 | -76.98291 | 35881 ft | 453 kts | 195° |
| 2026-04-25 16:36 | 36.16454 | -76.99863 | 35880 ft | 455 kts | 195° |
| 2026-04-25 16:37 | 36.10245 | -77.01434 | 35878 ft | 455 kts | 195° |
| 2026-04-25 16:37 | 36.05085 | -77.02738 | 35876 ft | 456 kts | 195° |
| 2026-04-25 16:38 | 35.98870 | -77.04306 | 35876 ft | 456 kts | 195° |
| 2026-04-25 16:38 | 35.92766 | -77.06301 | 35881 ft | 450 kts | 207° |
| 2026-04-25 16:39 | 35.87490 | -77.10269 | 35892 ft | 443 kts | 221° |
| 2026-04-25 16:39 | 35.82695 | -77.15061 | 35888 ft | 443 kts | 222° |
| 2026-04-25 16:40 | 35.77903 | -77.19854 | 35880 ft | 444 kts | 221° |
| 2026-04-25 16:40 | 35.73083 | -77.24616 | 35890 ft | 444 kts | 221° |
| 2026-04-25 16:41 | 35.68252 | -77.29353 | 35884 ft | 445 kts | 221° |
| 2026-04-25 16:41 | 35.61019 | -77.36423 | 35887 ft | 444 kts | 221° |
| 2026-04-25 16:42 | 35.56172 | -77.41154 | 35879 ft | 444 kts | 221° |
| 2026-04-25 16:42 | 35.51327 | -77.45874 | 35886 ft | 444 kts | 221° |
| 2026-04-25 16:43 | 35.46481 | -77.50587 | 35911 ft | 445 kts | 221° |
| 2026-04-25 16:43 | 35.41626 | -77.55303 | 35918 ft | 445 kts | 221° |
| 2026-04-25 16:44 | 35.36791 | -77.59992 | 35914 ft | 446 kts | 222° |
| 2026-04-25 16:44 | 35.31919 | -77.64710 | 35916 ft | 446 kts | 222° |
| 2026-04-25 16:45 | 35.27038 | -77.69428 | 35917 ft | 447 kts | 222° |
| 2026-04-25 16:45 | 35.22155 | -77.74141 | 35914 ft | 447 kts | 222° |
| 2026-04-25 16:46 | 35.17268 | -77.78850 | 35910 ft | 447 kts | 222° |
| 2026-04-25 16:46 | 35.13197 | -77.82768 | 35889 ft | 447 kts | 221° |
| 2026-04-25 16:47 | 35.07511 | -77.88232 | 35903 ft | 447 kts | 221° |
| 2026-04-25 16:47 | 35.02605 | -77.92938 | 35907 ft | 448 kts | 221° |
| 2026-04-25 16:48 | 34.97705 | -77.97631 | 35909 ft | 448 kts | 221° |
| 2026-04-25 16:48 | 34.92917 | -78.02210 | 35907 ft | 448 kts | 221° |
| 2026-04-25 16:49 | 34.88036 | -78.06872 | 35898 ft | 448 kts | 221° |
| 2026-04-25 16:49 | 34.83130 | -78.11552 | 35908 ft | 448 kts | 221° |
| 2026-04-25 16:50 | 34.78202 | -78.16266 | 35600 ft | 453 kts | 221° |
| 2026-04-25 16:50 | 34.75730 | -78.18631 | 35358 ft | 451 kts | 221° |
| 2026-04-25 16:50 | 34.73273 | -78.20977 | 35111 ft | 449 kts | 221° |
| 2026-04-25 16:51 | 34.70807 | -78.23331 | 34881 ft | 449 kts | 221° |
| 2026-04-25 16:51 | 34.68376 | -78.25649 | 34635 ft | 449 kts | 221° |
| 2026-04-25 16:51 | 34.65922 | -78.27988 | 34382 ft | 448 kts | 220° |
| 2026-04-25 16:51 | 34.64256 | -78.29575 | 34227 ft | 449 kts | 220° |
| 2026-04-25 16:52 | 34.60998 | -78.32675 | 33922 ft | 449 kts | 220° |
| 2026-04-25 16:52 | 34.58537 | -78.35014 | 33668 ft | 450 kts | 220° |
| 2026-04-25 16:52 | 34.56068 | -78.37360 | 33404 ft | 451 kts | 220° |
| 2026-04-25 16:52 | 34.53591 | -78.39711 | 33156 ft | 453 kts | 220° |
| 2026-04-25 16:53 | 34.48611 | -78.44434 | 32637 ft | 455 kts | 220° |
| 2026-04-25 16:53 | 34.46138 | -78.46776 | 32387 ft | 457 kts | 220° |
| 2026-04-25 16:53 | 34.43629 | -78.49150 | 32129 ft | 458 kts | 220° |
| 2026-04-25 16:54 | 34.41112 | -78.51531 | 31885 ft | 460 kts | 219° |
| 2026-04-25 16:54 | 34.38588 | -78.53917 | 31647 ft | 461 kts | 219° |
| 2026-04-25 16:54 | 34.36054 | -78.56309 | 31407 ft | 463 kts | 219° |
| 2026-04-25 16:54 | 34.33512 | -78.58708 | 31164 ft | 463 kts | 220° |
| 2026-04-25 16:55 | 34.31071 | -78.61246 | 30914 ft | 463 kts | 225° |
| 2026-04-25 16:55 | 34.28762 | -78.63972 | 30686 ft | 462 kts | 226° |
| 2026-04-25 16:55 | 34.26510 | -78.66733 | 30449 ft | 461 kts | 227° |
| 2026-04-25 16:55 | 34.24274 | -78.69493 | 30195 ft | 458 kts | 227° |
| 2026-04-25 16:56 | 34.22053 | -78.72218 | 29673 ft | 452 kts | 226° |
| 2026-04-25 16:56 | 34.19851 | -78.74896 | 29148 ft | 446 kts | 226° |
| 2026-04-25 16:56 | 34.17663 | -78.77535 | 28635 ft | 441 kts | 227° |
| 2026-04-25 16:56 | 34.15523 | -78.80103 | 28119 ft | 437 kts | 227° |
| 2026-04-25 16:57 | 34.13369 | -78.82677 | 27609 ft | 433 kts | 227° |
| 2026-04-25 16:57 | 34.11930 | -78.84395 | 27275 ft | 430 kts | 226° |
| 2026-04-25 16:57 | 34.09132 | -78.87734 | 26622 ft | 424 kts | 227° |
| 2026-04-25 16:57 | 34.07037 | -78.90231 | 26136 ft | 421 kts | 226° |
| 2026-04-25 16:58 | 34.04964 | -78.92699 | 25650 ft | 418 kts | 226° |
| 2026-04-25 16:58 | 34.02907 | -78.95151 | 25176 ft | 414 kts | 225° |
| 2026-04-25 16:58 | 34.00864 | -78.97583 | 24697 ft | 412 kts | 226° |
| 2026-04-25 16:58 | 33.98833 | -78.99998 | 24207 ft | 409 kts | 226° |
| 2026-04-25 16:59 | 33.96896 | -79.02301 | 23737 ft | 408 kts | 226° |
| 2026-04-25 16:59 | 33.94883 | -79.04692 | 23202 ft | 406 kts | 226° |
| 2026-04-25 16:59 | 33.92877 | -79.07072 | 22684 ft | 403 kts | 226° |
| 2026-04-25 16:59 | 33.90915 | -79.09398 | 22193 ft | 399 kts | 226° |
| 2026-04-25 17:00 | 33.88944 | -79.11734 | 21708 ft | 396 kts | 226° |
| 2026-04-25 17:00 | 33.86988 | -79.14052 | 21237 ft | 393 kts | 226° |
| 2026-04-25 17:00 | 33.85044 | -79.16355 | 20767 ft | 390 kts | 226° |
| 2026-04-25 17:00 | 33.83114 | -79.18639 | 20305 ft | 388 kts | 226° |
| 2026-04-25 17:01 | 33.81198 | -79.20904 | 19839 ft | 385 kts | 226° |
| 2026-04-25 17:01 | 33.79288 | -79.23157 | 19382 ft | 383 kts | 226° |
| 2026-04-25 17:01 | 33.77218 | -79.25190 | 18887 ft | 384 kts | 216° |
| 2026-04-25 17:01 | 33.74962 | -79.26904 | 18412 ft | 384 kts | 213° |
| 2026-04-25 17:02 | 33.72674 | -79.28555 | 17905 ft | 383 kts | 213° |
| 2026-04-25 17:02 | 33.70400 | -79.30195 | 17472 ft | 379 kts | 213° |
| 2026-04-25 17:02 | 33.68155 | -79.31837 | 16996 ft | 376 kts | 214° |
| 2026-04-25 17:02 | 33.65937 | -79.33483 | 16550 ft | 373 kts | 214° |
| 2026-04-25 17:03 | 33.63766 | -79.35108 | 16118 ft | 370 kts | 214° |
| 2026-04-25 17:03 | 33.61594 | -79.36742 | 15670 ft | 367 kts | 214° |
| 2026-04-25 17:03 | 33.59437 | -79.38367 | 15242 ft | 365 kts | 214° |
| 2026-04-25 17:03 | 33.57293 | -79.39982 | 14814 ft | 362 kts | 214° |
| 2026-04-25 17:04 | 33.55165 | -79.41585 | 14380 ft | 360 kts | 214° |
| 2026-04-25 17:04 | 33.53046 | -79.43180 | 13941 ft | 358 kts | 214° |
| 2026-04-25 17:04 | 33.50940 | -79.44761 | 13507 ft | 355 kts | 214° |
| 2026-04-25 17:04 | 33.48850 | -79.46329 | 13019 ft | 353 kts | 214° |
| 2026-04-25 17:05 | 33.46780 | -79.47886 | 12598 ft | 350 kts | 214° |
| 2026-04-25 17:05 | 33.42706 | -79.50946 | 11737 ft | 344 kts | 213° |
| 2026-04-25 17:05 | 33.40650 | -79.52491 | 11375 ft | 339 kts | 214° |
| 2026-04-25 17:06 | 33.38721 | -79.53938 | 11250 ft | 328 kts | 214° |
| 2026-04-25 17:06 | 33.36843 | -79.55344 | 11110 ft | 319 kts | 214° |
| 2026-04-25 17:06 | 33.34975 | -79.56743 | 11006 ft | 313 kts | 214° |
| 2026-04-25 17:06 | 33.33134 | -79.58138 | 10611 ft | 313 kts | 214° |
| 2026-04-25 17:07 | 33.31300 | -79.59532 | 10280 ft | 311 kts | 214° |
| 2026-04-25 17:07 | 33.29454 | -79.60878 | 9941 ft | 310 kts | 207° |
| 2026-04-25 17:07 | 33.27385 | -79.61440 | 9915 ft | 301 kts | 181° |
| 2026-04-25 17:07 | 33.25354 | -79.61093 | 9916 ft | 288 kts | 176° |
| 2026-04-25 17:08 | 33.23426 | -79.61303 | 9777 ft | 275 kts | 202° |
| 2026-04-25 17:08 | 33.21839 | -79.62438 | 9778 ft | 260 kts | 220° |
| 2026-04-25 17:08 | 33.20474 | -79.63792 | 9747 ft | 257 kts | 222° |
| 2026-04-25 17:08 | 33.19095 | -79.65216 | 9771 ft | 266 kts | 223° |
| 2026-04-25 17:09 | 33.17684 | -79.66683 | 9765 ft | 271 kts | 222° |
| 2026-04-25 17:09 | 33.16263 | -79.68163 | 9735 ft | 272 kts | 223° |
| 2026-04-25 17:09 | 33.14819 | -79.69673 | 9148 ft | 279 kts | 223° |
| 2026-04-25 17:09 | 33.13365 | -79.71205 | 8620 ft | 278 kts | 223° |
| 2026-04-25 17:10 | 33.11921 | -79.72735 | 8090 ft | 277 kts | 222° |
| 2026-04-25 17:10 | 33.10493 | -79.74260 | 7570 ft | 275 kts | 223° |
| 2026-04-25 17:10 | 33.08964 | -79.75642 | 6979 ft | 277 kts | 204° |
| 2026-04-25 17:10 | 33.07180 | -79.76332 | 6790 ft | 264 kts | 199° |
| 2026-04-25 17:11 | 33.05499 | -79.77108 | 6540 ft | 254 kts | 205° |
| 2026-04-25 17:11 | 33.03925 | -79.78024 | 6304 ft | 249 kts | 208° |
| 2026-04-25 17:11 | 33.02399 | -79.79045 | 6077 ft | 253 kts | 211° |
| 2026-04-25 17:11 | 33.00891 | -79.80146 | 5822 ft | 255 kts | 213° |
| 2026-04-25 17:12 | 32.99417 | -79.81283 | 5582 ft | 255 kts | 214° |
| 2026-04-25 17:12 | 32.97941 | -79.82460 | 5327 ft | 255 kts | 214° |
| 2026-04-25 17:12 | 32.96482 | -79.83649 | 5089 ft | 253 kts | 215° |
| 2026-04-25 17:12 | 32.95039 | -79.84841 | 4842 ft | 251 kts | 215° |
| 2026-04-25 17:13 | 32.93610 | -79.86031 | 4589 ft | 250 kts | 215° |
| 2026-04-25 17:13 | 32.93126 | -79.86434 | 4506 ft | 250 kts | 215° |
| 2026-04-25 17:13 | 32.90771 | -79.88396 | 4087 ft | 248 kts | 215° |
| 2026-04-25 17:13 | 32.89244 | -79.89311 | 3819 ft | 247 kts | 192° |
| 2026-04-25 17:14 | 32.87542 | -79.89227 | 3580 ft | 248 kts | 163° |
| 2026-04-25 17:14 | 32.86048 | -79.88187 | 3358 ft | 250 kts | 144° |
| 2026-04-25 17:14 | 32.84706 | -79.86883 | 3119 ft | 247 kts | 143° |
| 2026-04-25 17:14 | 32.83453 | -79.85596 | 3050 ft | 227 kts | 142° |
| 2026-04-25 17:15 | 32.82333 | -79.84416 | 3003 ft | 209 kts | 142° |
| 2026-04-25 17:15 | 32.81307 | -79.83318 | 2970 ft | 188 kts | 142° |
| 2026-04-25 17:15 | 32.80366 | -79.82287 | 2986 ft | 182 kts | 142° |
| 2026-04-25 17:15 | 32.79444 | -79.81275 | 2977 ft | 179 kts | 142° |
| 2026-04-25 17:16 | 32.78531 | -79.80280 | 2982 ft | 177 kts | 142° |
| 2026-04-25 17:16 | 32.77609 | -79.79280 | 2818 ft | 184 kts | 141° |
| 2026-04-25 17:16 | 32.76653 | -79.78254 | 2572 ft | 184 kts | 141° |
| 2026-04-25 17:16 | 32.75705 | -79.77235 | 2287 ft | 183 kts | 142° |
| 2026-04-25 17:17 | 32.74779 | -79.76219 | 2036 ft | 180 kts | 142° |
| 2026-04-25 17:17 | 32.73836 | -79.75198 | 2051 ft | 183 kts | 142° |
| 2026-04-25 17:17 | 32.72823 | -79.74292 | 1963 ft | 179 kts | 164° |
| 2026-04-25 17:17 | 32.71662 | -79.74277 | 1986 ft | 167 kts | 206° |
| 2026-04-25 17:18 | 32.70840 | -79.75213 | 2002 ft | 169 kts | 242° |
| 2026-04-25 17:18 | 32.70302 | -79.76466 | 2006 ft | 171 kts | 242° |
| 2026-04-25 17:18 | 32.69754 | -79.77696 | 1990 ft | 170 kts | 241° |
| 2026-04-25 17:18 | 32.69205 | -79.78933 | 1986 ft | 169 kts | 242° |
| 2026-04-25 17:19 | 32.68657 | -79.80163 | 1995 ft | 167 kts | 242° |
| 2026-04-25 17:19 | 32.68124 | -79.81383 | 1975 ft | 167 kts | 241° |
| 2026-04-25 17:19 | 32.67645 | -79.82632 | 1981 ft | 166 kts | 256° |
| 2026-04-25 17:19 | 32.67833 | -79.83976 | 2011 ft | 174 kts | 298° |
| 2026-04-25 17:20 | 32.68747 | -79.84949 | 2013 ft | 180 kts | 322° |
| 2026-04-25 17:20 | 32.69784 | -79.85772 | 1993 ft | 178 kts | 322° |
| 2026-04-25 17:20 | 32.70804 | -79.86600 | 1980 ft | 178 kts | 321° |
| 2026-04-25 17:20 | 32.71820 | -79.87428 | 1980 ft | 177 kts | 320° |
| 2026-04-25 17:21 | 32.72759 | -79.88339 | 2021 ft | 171 kts | 312° |
| 2026-04-25 17:21 | 32.73665 | -79.89316 | 1989 ft | 176 kts | 314° |
| 2026-04-25 17:21 | 32.74548 | -79.90264 | 1985 ft | 173 kts | 313° |
| 2026-04-25 17:21 | 32.75466 | -79.91245 | 2037 ft | 184 kts | 316° |
| 2026-04-25 17:22 | 32.76417 | -79.92250 | 1980 ft | 179 kts | 314° |
| 2026-04-25 17:22 | 32.76730 | -79.92580 | 1988 ft | 177 kts | 314° |
| 2026-04-25 17:22 | 32.78267 | -79.94203 | 1974 ft | 176 kts | 315° |
| 2026-04-25 17:22 | 32.79179 | -79.95163 | 1994 ft | 178 kts | 315° |
| 2026-04-25 17:23 | 32.80098 | -79.96127 | 1974 ft | 174 kts | 315° |
| 2026-04-25 17:23 | 32.81008 | -79.97059 | 1968 ft | 172 kts | 320° |
| 2026-04-25 17:23 | 32.81680 | -79.97582 | 1886 ft | 176 kts | 324° |
| 2026-04-25 17:23 | 32.83077 | -79.98607 | 1674 ft | 177 kts | 325° |
| 2026-04-25 17:24 | 32.83789 | -79.99095 | 1540 ft | 177 kts | 326° |
| 2026-04-25 17:24 | 32.85120 | -80.00073 | 1295 ft | 173 kts | 324° |
| 2026-04-25 17:24 | 32.85805 | -80.00586 | 1119 ft | 171 kts | 323° |
| 2026-04-25 17:24 | 32.86779 | -80.01353 | 719 ft | 163 kts | 324° |
| 2026-04-25 17:25 | 32.87710 | -80.02078 | 471 ft | 163 kts | 324° |
| 2026-04-25 17:25 | 32.88667 | -80.02792 | 216 ft | 162 kts | 322° |
| 2026-04-25 17:25 | 32.89616 | -80.03532 | 48 ft | 157 kts | 326° |
| 2026-04-25 17:25 | 32.90238 | -80.04006 | 55 ft | 51 kts | 327° |
| 2026-04-25 17:26 | 32.90385 | -80.04119 | 49 ft | 23 kts | 327° |
| 2026-04-25 17:26 | 32.90526 | -80.04227 | 53 ft | 26 kts | 329° |
| 2026-04-25 17:26 | 32.90707 | -80.04361 | 55 ft | 35 kts | 327° |
| 2026-04-25 17:26 | 32.90792 | -80.04510 | 53 ft | 13 kts | 244° |
| 2026-04-25 17:27 | 32.90739 | -80.04592 | 53 ft | 12 kts | 230° |
| 2026-04-25 17:27 | 32.90671 | -80.04631 | 54 ft | 12 kts | 158° |
| 2026-04-25 17:27 | 32.90597 | -80.04584 | 53 ft | 12 kts | 143° |
| 2026-04-25 17:27 | 32.90540 | -80.04539 | 49 ft | 19 kts | 149° |
| 2026-04-25 17:28 | 32.90330 | -80.04438 | 50 ft | 28 kts | 180° |
| 2026-04-25 17:28 | 32.90143 | -80.04442 | 51 ft | 26 kts | 181° |
| 2026-04-25 17:28 | 32.89960 | -80.04447 | 53 ft | 31 kts | 180° |
| 2026-04-25 17:28 | 32.89729 | -80.04452 | 53 ft | 33 kts | 181° |
| 2026-04-25 17:29 | 32.89510 | -80.04458 | 49 ft | 31 kts | 181° |
| 2026-04-25 17:29 | 32.89315 | -80.04434 | 50 ft | 24 kts | 126° |
| 2026-04-25 17:29 | 32.89301 | -80.04243 | 50 ft | 16 kts | 101° |
| 2026-04-25 17:29 | 32.89300 | -80.04237 | 50 ft | 0 kts | 101° |
| 2026-04-25 17:30 | 32.89296 | -80.04215 | 50 ft | 9 kts | 101° |
| 2026-04-25 17:30 | 32.89271 | -80.04076 | 50 ft | 20 kts | 102° |
| 2026-04-25 17:30 | 32.89242 | -80.03907 | 51 ft | 24 kts | 101° |
| 2026-04-25 17:30 | 32.89202 | -80.03670 | 46 ft | 32 kts | 101° |
| 2026-04-25 17:31 | 32.89120 | -80.03598 | 46 ft | 17 kts | 182° |
| 2026-04-25 17:31 | 32.88990 | -80.03603 | 44 ft | 21 kts | 185° |
| 2026-04-25 17:31 | 32.88827 | -80.03632 | 38 ft | 25 kts | 188° |
| 2026-04-25 17:31 | 32.88666 | -80.03615 | 37 ft | 24 kts | 141° |
| 2026-04-25 17:32 | 32.88567 | -80.03596 | 37 ft | 0 kts | 178° |